Time;durP1;ratioP1;P1;durP2;ratioP2;P2;SDS_P1;SDS_P2;PMS_P1;PMS_P2;Temp;Humidity;BMP_temperature;BMP_pressure;BME280_temperature;BME280_humidity;BME280_pressure;Samples;Min_cycle;Max_cycle;Signal;HPM_P1;HPM_P2
2023/07/14 00:00:07;;;;;;;9.27;7.53;;;;;;;;;;5050079;28;20048;-73
2023/07/14 00:02:34;;;;;;;13.00;8.60;;;;;;;;;;5050479;28;20078;-71
2023/07/14 00:05:00;;;;;;;15.48;9.15;;;;;;;;;;5050146;28;20028;-72
2023/07/14 00:07:26;;;;;;;12.02;8.35;;;;;;;;;;5049846;28;20033;-73
2023/07/14 00:09:53;;;;;;;14.55;9.07;;;;;;;;;;5048568;28;20037;-73
2023/07/14 00:12:19;;;;;;;14.88;9.07;;;;;;;;;;5049322;28;20098;-73
2023/07/14 00:14:45;;;;;;;12.50;7.93;;;;;;;;;;5049583;28;20056;-74
2023/07/14 00:17:12;;;;;;;10.30;7.47;;;;;;;;;;5049532;28;20029;-73
2023/07/14 00:19:40;;;;;;;11.95;8.38;;;;;;;;;;5049930;28;20867;-74
2023/07/14 00:22:14;;;;;;;14.68;8.48;;;;;;;;;;5048539;28;20044;-73
2023/07/14 00:24:42;;;;;;;13.07;9.30;;;;;;;;;;5049222;28;20133;-73
2023/07/14 00:27:17;;;;;;;13.88;9.48;;;;;;;;;;5049275;28;20045;-71
2023/07/14 00:29:45;;;;;;;11.05;8.50;;;;;;;;;;5049434;28;20078;-73
2023/07/14 00:32:21;;;;;;;13.23;9.00;;;;;;;;;;5049926;28;20024;-73
2023/07/14 00:34:47;;;;;;;16.98;9.15;;;;;;;;;;5049648;28;20470;-73
2023/07/14 00:37:14;;;;;;;13.60;8.60;;;;;;;;;;5047832;28;20057;-73
2023/07/14 00:39:40;;;;;;;13.85;8.45;;;;;;;;;;5048962;28;20092;-73
2023/07/14 00:42:11;;;;;;;13.80;9.23;;;;;;;;;;5049731;28;20021;-73
2023/07/14 00:44:37;;;;;;;13.48;9.18;;;;;;;;;;5048936;28;20029;-73
2023/07/14 00:47:05;;;;;;;15.20;9.10;;;;;;;;;;5049120;28;20136;-73
2023/07/14 00:49:39;;;;;;;13.45;8.32;;;;;;;;;;5049213;28;20044;-73
2023/07/14 00:52:19;;;;;;;9.93;8.15;;;;;;;;;;5048727;28;20032;-73
2023/07/14 00:54:45;;;;;;;;;;;;;;;;;;5049350;28;20107;-73
2023/07/14 00:57:16;;;;;;;13.98;8.40;;;;;;;;;;5049043;28;20438;-73
2023/07/14 00:59:42;;;;;;;14.38;8.90;;;;;;;;;;5047992;28;20040;-73
2023/07/14 01:02:11;;;;;;;13.50;10.25;;;;;;;;;;5049149;28;20021;-73
2023/07/14 01:04:42;;;;;;;13.50;8.90;;;;;;;;;;5048918;28;20036;-72
2023/07/14 01:07:09;;;;;;;13.55;9.38;;;;;;;;;;5049465;28;20021;-73
2023/07/14 01:09:36;;;;;;;13.02;8.43;;;;;;;;;;5049060;28;20063;-72
2023/07/14 01:12:03;;;;;;;11.30;8.60;;;;;;;;;;5048215;28;20475;-73
2023/07/14 01:14:34;;;;;;;12.93;9.07;;;;;;;;;;5049155;28;20047;-73
2023/07/14 01:17:01;;;;;;;14.25;9.15;;;;;;;;;;5048615;28;20036;-73
2023/07/14 01:19:32;;;;;;;13.10;8.95;;;;;;;;;;5048131;28;20589;-72
2023/07/14 01:22:12;;;;;;;11.25;8.60;;;;;;;;;;5049164;28;20028;-73
2023/07/14 01:24:44;;;;;;;10.30;7.90;;;;;;;;;;5048848;28;20059;-73
2023/07/14 01:27:10;;;;;;;12.07;8.23;;;;;;;;;;5049058;28;20456;-72
2023/07/14 01:29:38;;;;;;;11.82;9.15;;;;;;;;;;5048558;28;20029;-72
2023/07/14 01:32:11;;;;;;;13.82;9.52;;;;;;;;;;5049147;28;20017;-72
2023/07/14 01:34:38;;;;;;;18.48;8.70;;;;;;;;;;5048818;28;20095;-72
2023/07/14 01:37:04;;;;;;;11.88;9.30;;;;;;;;;;5049199;28;20025;-72
2023/07/14 01:39:31;;;;;;;11.70;8.68;;;;;;;;;;5053106;28;20129;-72
2023/07/14 01:42:00;;;;;;;11.48;8.43;;;;;;;;;;5053064;28;20032;-73
2023/07/14 01:44:26;;;;;;;15.65;9.10;;;;;;;;;;5053658;28;20029;-73
2023/07/14 01:46:53;;;;;;;11.88;8.02;;;;;;;;;;5053743;28;20021;-72
2023/07/14 01:49:28;;;;;;;11.15;8.77;;;;;;;;;;5050707;28;20487;-72
2023/07/14 01:51:59;;;;;;;10.70;8.30;;;;;;;;;;5051459;28;20021;-73
2023/07/14 01:54:28;;;;;;;10.95;8.18;;;;;;;;;;5052833;28;20033;-73
2023/07/14 01:56:55;;;;;;;12.75;8.25;;;;;;;;;;5052604;28;20394;-72
2023/07/14 01:59:23;;;;;;;10.82;9.25;;;;;;;;;;5052341;28;20104;-73
2023/07/14 02:01:50;;;;;;;11.20;8.43;;;;;;;;;;5052138;28;20505;-73
2023/07/14 02:04:24;;;;;;;14.45;8.88;;;;;;;;;;5052447;28;20390;-73
2023/07/14 02:06:50;;;;;;;15.18;10.48;;;;;;;;;;5052283;28;20021;-73
2023/07/14 02:09:18;;;;;;;15.23;9.55;;;;;;;;;;5052396;28;20013;-73
2023/07/14 02:11:47;;;;;;;15.68;10.18;;;;;;;;;;5050927;28;20064;-73
2023/07/14 02:14:19;;;;;;;14.32;9.23;;;;;;;;;;5052040;28;20029;-72
2023/07/14 02:16:46;;;;;;;13.52;9.70;;;;;;;;;;5051615;28;20033;-73
2023/07/14 02:19:17;;;;;;;13.68;9.82;;;;;;;;;;5051719;28;20025;-73
2023/07/14 02:21:43;;;;;;;15.98;8.85;;;;;;;;;;5051707;28;20024;-73
2023/07/14 02:24:15;;;;;;;16.90;9.82;;;;;;;;;;5051979;28;20590;-72
2023/07/14 02:26:41;;;;;;;16.02;9.90;;;;;;;;;;5051811;28;20102;-73
2023/07/14 02:29:11;;;;;;;14.88;10.05;;;;;;;;;;5051620;28;20025;-73
2023/07/14 02:31:43;;;;;;;14.27;9.32;;;;;;;;;;5050563;28;20029;-73
2023/07/14 02:34:13;;;;;;;13.70;9.88;;;;;;;;;;5050719;28;20399;-73
2023/07/14 02:36:54;;;;;;;12.70;9.38;;;;;;;;;;5051510;28;20033;-74
2023/07/14 02:39:20;;;;;;;15.00;9.07;;;;;;;;;;5050466;28;20120;-73
2023/07/14 02:41:47;;;;;;;14.38;10.02;;;;;;;;;;5051625;28;20057;-73
2023/07/14 02:44:15;;;;;;;13.68;9.85;;;;;;;;;;5052041;28;20116;-73
2023/07/14 02:46:44;;;;;;;12.88;9.63;;;;;;;;;;5052068;28;20215;-73
2023/07/14 02:49:11;;;;;;;15.38;9.70;;;;;;;;;;5051883;28;20454;-73
2023/07/14 02:51:37;;;;;;;14.10;9.63;;;;;;;;;;5051785;28;20517;-73
2023/07/14 02:54:04;;;;;;;14.48;9.70;;;;;;;;;;5051367;28;20123;-72
2023/07/14 02:56:30;;;;;;;14.50;9.80;;;;;;;;;;5051640;28;20670;-73
2023/07/14 02:58:57;;;;;;;16.30;8.93;;;;;;;;;;5051321;28;20047;-74
2023/07/14 03:01:23;;;;;;;11.70;8.63;;;;;;;;;;5051796;28;20088;-72
2023/07/14 03:03:50;;;;;;;12.70;8.95;;;;;;;;;;5051322;28;20060;-73
2023/07/14 03:06:17;;;;;;;12.68;7.93;;;;;;;;;;5051801;28;20039;-73
2023/07/14 03:08:43;;;;;;;14.75;9.65;;;;;;;;;;5051222;28;20047;-73
2023/07/14 03:11:10;;;;;;;12.45;8.43;;;;;;;;;;5050178;28;20479;-73
2023/07/14 03:13:37;;;;;;;15.60;8.55;;;;;;;;;;5051567;28;20033;-73
2023/07/14 03:16:03;;;;;;;14.38;8.80;;;;;;;;;;5051362;28;20025;-73
2023/07/14 03:18:29;;;;;;;19.80;8.35;;;;;;;;;;5051318;28;20021;-73
2023/07/14 03:20:56;;;;;;;13.18;9.38;;;;;;;;;;5051306;28;20069;-73
2023/07/14 03:23:22;;;;;;;11.57;8.57;;;;;;;;;;5051309;28;20033;-73
2023/07/14 03:25:56;;;;;;;14.52;9.57;;;;;;;;;;5051075;28;20081;-73
2023/07/14 03:28:23;;;;;;;14.85;9.73;;;;;;;;;;5051483;28;20075;-73
2023/07/14 03:30:49;;;;;;;17.55;8.88;;;;;;;;;;5051334;28;20103;-72
2023/07/14 03:33:16;;;;;;;13.88;10.45;;;;;;;;;;5051128;28;20722;-73
2023/07/14 03:35:42;;;;;;;15.02;10.48;;;;;;;;;;5051444;28;20123;-73
2023/07/14 03:38:08;;;;;;;14.98;10.13;;;;;;;;;;5050557;28;20035;-73
2023/07/14 03:40:35;;;;;;;15.52;9.38;;;;;;;;;;5050870;28;20122;-73
2023/07/14 03:43:03;;;;;;;16.25;11.05;;;;;;;;;;5050459;28;20060;-72
2023/07/14 03:45:29;;;;;;;15.88;11.23;;;;;;;;;;5050504;28;20067;-72
2023/07/14 03:47:55;;;;;;;15.25;11.60;;;;;;;;;;5050918;28;20037;-72
2023/07/14 03:50:21;;;;;;;14.38;11.98;;;;;;;;;;5050605;28;20033;-72
2023/07/14 03:52:47;;;;;;;17.00;11.98;;;;;;;;;;5049143;28;20032;-72
2023/07/14 03:55:13;;;;;;;17.23;12.38;;;;;;;;;;5050136;28;20031;-72
2023/07/14 03:57:39;;;;;;;14.45;12.40;;;;;;;;;;5049514;28;20033;-72
2023/07/14 04:00:14;;;;;;;19.60;12.07;;;;;;;;;;5049826;28;20017;-73
2023/07/14 04:02:44;;;;;;;17.45;12.52;;;;;;;;;;5050682;28;20029;-72
2023/07/14 04:05:11;;;;;;;15.40;12.40;;;;;;;;;;5050499;28;20483;-72
2023/07/14 04:07:37;;;;;;;18.10;10.57;;;;;;;;;;5050461;28;20390;-72
2023/07/14 04:10:04;;;;;;;14.68;11.50;;;;;;;;;;5048487;28;20386;-71
2023/07/14 04:12:31;;;;;;;15.15;11.73;;;;;;;;;;5050265;28;20036;-71
2023/07/14 04:14:57;;;;;;;17.40;11.32;;;;;;;;;;5050040;28;20024;-72
2023/07/14 04:17:23;;;;;;;14.40;12.75;;;;;;;;;;5049518;28;20023;-72
2023/07/14 04:19:50;;;;;;;15.07;12.00;;;;;;;;;;5048770;28;20542;-71
2023/07/14 04:22:16;;;;;;;14.95;11.57;;;;;;;;;;5049786;28;20037;-73
2023/07/14 04:24:42;;;;;;;16.42;11.88;;;;;;;;;;5049582;28;20444;-74
2023/07/14 04:27:08;;;;;;;16.90;11.85;;;;;;;;;;5049133;28;20045;-73
2023/07/14 04:29:35;;;;;;;16.55;11.63;;;;;;;;;;5048475;28;20033;-73
2023/07/14 04:32:01;;;;;;;13.90;11.50;;;;;;;;;;5049594;28;20407;-73
2023/07/14 04:34:27;;;;;;;15.68;11.73;;;;;;;;;;5047909;28;20118;-73
2023/07/14 04:36:54;;;;;;;17.23;11.85;;;;;;;;;;5049696;28;20118;-73
2023/07/14 04:39:20;;;;;;;17.20;13.43;;;;;;;;;;5049226;28;20036;-72
2023/07/14 04:41:46;;;;;;;16.63;11.57;;;;;;;;;;5049543;28;20017;-73
2023/07/14 04:44:15;;;;;;;16.75;12.10;;;;;;;;;;5049199;28;20072;-74
2023/07/14 04:46:42;;;;;;;15.85;11.80;;;;;;;;;;5049046;28;20043;-72
2023/07/14 04:49:09;;;;;;;17.58;12.38;;;;;;;;;;5049026;28;20025;-73
2023/07/14 04:51:36;;;;;;;16.73;11.75;;;;;;;;;;5049274;28;20029;-72
2023/07/14 04:54:06;;;;;;;18.15;12.27;;;;;;;;;;5049171;28;20434;-73
2023/07/14 04:56:32;;;;;;;;;;;;;;;;;;5048586;28;20028;-72
2023/07/14 04:58:58;;;;;;;18.75;12.57;;;;;;;;;;5049318;28;20399;-74
2023/07/14 05:01:23;;;;;;;14.70;11.45;;;18.60;97.60;;;;;;5049330;28;20484;-73
2023/07/14 05:03:49;;;;;;;17.38;13.32;;;18.80;98.00;;;;;;5049056;28;20060;-71
2023/07/14 05:06:18;;;;;;;12.82;10.80;;;18.70;98.10;;;;;;5048728;28;20507;-72
2023/07/14 05:08:44;;;;;;;15.50;11.40;;;18.70;98.40;;;;;;5049241;28;20032;-72
2023/07/14 05:11:09;;;;;;;14.60;11.75;;;18.70;98.40;;;;;;5048809;28;20040;-72
2023/07/14 05:13:35;;;;;;;15.93;11.52;;;18.70;98.40;;;;;;5049218;28;20067;-72
2023/07/14 05:16:01;;;;;;;15.75;11.00;;;18.70;98.20;;;;;;5048623;28;20017;-72
2023/07/14 05:18:26;;;;;;;16.10;12.13;;;18.60;98.30;;;;;;5048586;28;20036;-72
2023/07/14 05:20:58;;;;;;;13.75;10.50;;;18.70;98.30;;;;;;5048883;28;20029;-72
2023/07/14 05:23:26;;;;;;;14.60;11.50;;;18.70;98.30;;;;;;5048482;28;20029;-73
2023/07/14 05:25:52;;;;;;;17.50;11.27;;;18.80;98.20;;;;;;5048910;28;20049;-72
2023/07/14 05:28:18;;;;;;;15.57;11.00;;;18.80;98.00;;;;;;5048344;28;20032;-72
2023/07/14 05:30:44;;;;;;;15.05;10.60;;;18.80;98.10;;;;;;5048700;28;20032;-71
2023/07/14 05:33:12;;;;;;;10.93;3.97;;;18.80;97.90;;;;;;5047320;28;20029;-71
2023/07/14 05:35:38;;;;;;;9.80;4.22;;;18.90;96.30;;;;;;5048523;28;20029;-72
2023/07/14 05:38:04;;;;;;;6.38;3.40;;;19.00;95.60;;;;;;5048346;28;20205;-72
2023/07/14 05:40:31;;;;;;;15.15;9.52;;;19.10;95.20;;;;;;5048666;28;20127;-73
2023/07/14 05:42:57;;;;;;;18.50;10.02;;;19.20;95.70;;;;;;5048956;28;20025;-71
2023/07/14 05:45:23;;;;;;;15.35;9.63;;;19.10;96.20;;;;;;5048716;28;20222;-72
2023/07/14 05:47:49;;;;;;;14.82;10.25;;;19.00;96.40;;;;;;5048787;28;20111;-70
2023/07/14 05:50:18;;;;;;;13.80;9.85;;;19.10;96.60;;;;;;5047231;28;20116;-72
2023/07/14 05:52:44;;;;;;;11.10;8.00;;;19.20;96.60;;;;;;5048503;28;20059;-72
2023/07/14 05:55:11;;;;;;;11.27;8.40;;;19.30;96.40;;;;;;5048590;28;20450;-71
2023/07/14 05:57:37;;;;;;;13.63;9.43;;;19.20;96.20;;;;;;5046994;28;20117;-71
2023/07/14 06:00:06;;;;;;;13.65;9.13;;;19.10;96.20;;;;;;5048006;28;20033;-71
2023/07/14 06:02:32;;;;;;;14.10;9.98;;;19.20;96.40;;;;;;5048103;28;20113;-72
2023/07/14 06:05:00;;;;;;;14.35;8.38;;;19.10;96.30;;;;;;5047275;28;20096;-71
2023/07/14 06:07:25;;;;;;;13.13;8.15;;;19.10;96.40;;;;;;5048343;28;20017;-71
2023/07/14 06:09:51;;;;;;;15.02;8.77;;;19.00;96.40;;;;;;5048553;28;20031;-71
2023/07/14 06:12:17;;;;;;;13.18;8.18;;;19.20;96.30;;;;;;5048079;28;20787;-71
2023/07/14 06:14:42;;;;;;;13.90;8.82;;;19.20;96.10;;;;;;5048110;28;20029;-72
2023/07/14 06:17:09;;;;;;;14.05;8.55;;;19.30;95.80;;;;;;5048642;28;20049;-71
2023/07/14 06:19:36;;;;;;;14.32;7.22;;;19.40;95.20;;;;;;5047699;28;20573;-72
2023/07/14 06:22:04;;;;;;;10.55;6.57;;;19.50;95.30;;;;;;5047020;28;20025;-71
2023/07/14 06:24:29;;;;;;;14.38;7.78;;;19.50;95.10;;;;;;5051946;28;20052;-71
2023/07/14 06:26:55;;;;;;;10.80;7.10;;;19.70;94.70;;;;;;5051023;28;20107;-71
2023/07/14 06:29:21;;;;;;;11.57;6.97;;;19.80;94.30;;;;;;5051785;28;20052;-71
2023/07/14 06:31:46;;;;;;;7.78;4.22;;;19.80;94.10;;;;;;5051780;28;20104;-71
2023/07/14 06:34:13;;;;;;;8.38;4.90;;;19.80;93.60;;;;;;5051879;28;20090;-71
2023/07/14 06:36:39;;;;;;;8.23;4.22;;;19.80;93.50;;;;;;5051515;28;20021;-70
2023/07/14 06:39:04;;;;;;;7.85;4.30;;;19.90;93.20;;;;;;5051234;28;20194;-72
2023/07/14 06:41:30;;;;;;;7.00;3.65;;;20.00;93.10;;;;;;5051402;28;20024;-70
2023/07/14 06:43:57;;;;;;;9.80;5.53;;;20.10;92.70;;;;;;5051426;28;20025;-70
2023/07/14 06:46:23;;;;;;;9.32;4.93;;;20.30;92.50;;;;;;5051479;28;20676;-70
2023/07/14 06:48:48;;;;;;;10.15;5.30;;;20.40;92.20;;;;;;5051363;28;20028;-70
2023/07/14 06:51:14;;;;;;;10.38;5.93;;;20.50;92.10;;;;;;5051284;28;20386;-73
2023/07/14 06:53:40;;;;;;;8.23;4.75;;;20.50;92.00;;;;;;5051070;28;20029;-73
2023/07/14 06:56:07;;;;;;;8.88;4.78;;;20.50;92.00;;;;;;5050716;28;20495;-72
2023/07/14 06:58:33;;;;;;;9.52;5.28;;;20.60;92.00;;;;;;5051325;28;20491;-73
2023/07/14 07:01:03;;;;;;;13.27;6.88;;;20.70;91.80;;;;;;5050879;28;20021;-73
2023/07/14 07:03:28;;;;;;;12.77;5.43;;;20.90;91.60;;;;;;5051067;28;20138;-71
2023/07/14 07:05:56;;;;;;;8.45;4.60;;;21.00;91.90;;;;;;5051534;28;20029;-72
2023/07/14 07:08:22;;;;;;;7.72;4.28;;;21.00;91.50;;;;;;5051308;28;20076;-72
2023/07/14 07:10:48;;;;;;;11.10;4.95;;;21.10;91.30;;;;;;5051151;28;20502;-70
2023/07/14 07:13:14;;;;;;;8.20;4.75;;;21.20;91.00;;;;;;5051074;28;20103;-72
2023/07/14 07:15:40;;;;;;;6.85;3.60;;;21.30;90.50;;;;;;5050470;28;20096;-70
2023/07/14 07:18:06;;;;;;;9.90;4.07;;;21.20;90.60;;;;;;5050962;28;20025;-69
2023/07/14 07:20:34;;;;;;;8.38;4.72;;;21.10;91.00;;;;;;5050941;28;20378;-71
2023/07/14 07:23:00;;;;;;;10.40;6.55;;;21.10;90.70;;;;;;5050735;28;20029;-70
2023/07/14 07:25:26;;;;;;;9.38;4.30;;;21.00;90.60;;;;;;5050810;28;20053;-72
2023/07/14 07:27:51;;;;;;;8.68;4.72;;;20.80;90.90;;;;;;5050474;28;20170;-74
2023/07/14 07:30:20;;;;;;;8.50;3.72;;;20.70;90.90;;;;;;5050456;28;20040;-70
2023/07/14 07:32:46;;;;;;;6.68;3.30;;;20.80;91.30;;;;;;5050303;28;20029;-70
2023/07/14 07:35:12;;;;;;;7.53;3.58;;;21.00;91.10;;;;;;5050783;28;20029;-70
2023/07/14 07:37:38;;;;;;;9.50;5.53;;;21.10;90.80;;;;;;5050038;28;20031;-71
2023/07/14 07:40:06;;;;;;;4.35;2.45;;;21.20;90.50;;;;;;5050378;28;20507;-72
2023/07/14 07:42:32;;;;;;;7.88;4.03;;;21.30;90.60;;;;;;5050157;28;20512;-72
2023/07/14 07:44:58;;;;;;;7.32;3.20;;;21.40;89.90;;;;;;5050537;28;20394;-73
2023/07/14 07:47:25;;;;;;;6.28;2.58;;;21.40;89.40;;;;;;5050424;28;20021;-73
2023/07/14 07:49:51;;;;;;;8.43;3.00;;;21.40;89.30;;;;;;5051097;28;20033;-72
2023/07/14 07:52:17;;;;;;;6.68;2.78;;;21.50;88.80;;;;;;5050329;28;20063;-73
2023/07/14 07:54:42;;;;;;;5.53;2.80;;;21.60;88.30;;;;;;5050368;28;20025;-71
2023/07/14 07:57:09;;;;;;;6.60;2.70;;;21.70;87.40;;;;;;5050627;28;20395;-70
2023/07/14 07:59:35;;;;;;;8.50;3.10;;;21.80;87.50;;;;;;5050408;28;20440;-70
2023/07/14 08:02:01;;;;;;;5.75;2.67;;;21.90;86.10;;;;;;5050471;28;20017;-69
2023/07/14 08:04:28;;;;;;;5.90;2.05;;;22.00;85.40;;;;;;5050513;28;20021;-70
2023/07/14 08:06:54;;;;;;;8.23;2.78;;;22.00;86.50;;;;;;5050470;28;20394;-71
2023/07/14 08:09:20;;;;;;;7.75;2.80;;;22.10;86.40;;;;;;5048273;28;20017;-71
2023/07/14 08:11:46;;;;;;;6.70;3.10;;;22.30;86.00;;;;;;5050273;28;20545;-73
2023/07/14 08:14:15;;;;;;;4.88;2.72;;;22.40;85.70;;;;;;5050385;28;20021;-71
2023/07/14 08:16:41;;;;;;;8.15;2.75;;;22.50;85.40;;;;;;5049859;28;20079;-71
2023/07/14 08:19:07;;;;;;;5.10;2.42;;;22.50;84.90;;;;;;5049602;28;20029;-74
2023/07/14 08:21:33;;;;;;;8.23;2.72;;;22.50;85.30;;;;;;5049959;28;20029;-73
2023/07/14 08:24:00;;;;;;;5.80;2.97;;;22.50;86.10;;;;;;5049007;28;20113;-74
2023/07/14 08:26:26;;;;;;;7.95;3.17;;;22.40;86.60;;;;;;5049566;28;20099;-71
2023/07/14 08:28:51;;;;;;;4.05;2.47;;;22.40;86.60;;;;;;5049811;28;20025;-72
2023/07/14 08:31:17;;;;;;;8.18;2.80;;;22.40;86.40;;;;;;5048627;28;20072;-72
2023/07/14 08:33:44;;;;;;;5.32;2.38;;;22.50;86.60;;;;;;5049406;28;20574;-72
2023/07/14 08:36:12;;;;;;;7.07;2.60;;;22.60;86.10;;;;;;5049682;28;20096;-71
2023/07/14 08:38:39;;;;;;;6.40;2.55;;;22.60;83.10;;;;;;5049348;28;20044;-70
2023/07/14 08:41:29;;;;;;;4.82;2.08;;;22.60;82.20;;;;;;5049083;28;20029;-70
2023/07/14 08:44:15;;;;;;;;;;;22.70;83.40;;;;;;5049896;28;20036;-70
2023/07/14 08:46:41;;;;;;;5.93;2.60;;;22.70;80.20;;;;;;5049070;28;20336;-69
2023/07/14 08:49:25;;;;;;;8.13;2.95;;;22.60;80.60;;;;;;5049234;28;20017;-70
2023/07/14 08:52:03;;;;;;;5.68;2.30;;;22.50;79.70;;;;;;5049088;28;20060;-71
2023/07/14 08:54:46;;;;;;;6.45;2.03;;;22.70;81.70;;;;;;5049190;28;20117;-70
2023/07/14 08:57:17;;;;;;;6.07;2.42;;;22.80;79.60;;;;;;5049564;28;20025;-70
2023/07/14 08:59:45;;;;;;;5.13;2.78;;;22.80;78.50;;;;;;5049155;28;20029;-71
2023/07/14 09:02:30;;;;;;;7.20;2.60;;;22.60;79.30;;;;;;5047832;28;20531;-70
2023/07/14 09:05:08;;;;;;;6.22;2.38;;;22.50;80.40;;;;;;5048753;28;20039;-71
2023/07/14 09:07:34;;;;;;;6.28;2.30;;;22.50;81.50;;;;;;5049048;28;20025;-69
2023/07/14 09:10:00;;;;;;;7.88;2.85;;;22.50;79.00;;;;;;5049303;28;20383;-70
2023/07/14 09:12:36;;;;;;;4.95;2.00;;;22.60;78.50;;;;;;5049107;28;20108;-70
2023/07/14 09:15:10;;;;;;;6.70;2.45;;;22.70;80.00;;;;;;5047590;28;20367;-69
2023/07/14 09:18:04;;;;;;;4.75;2.28;;;22.80;78.80;;;;;;5047568;28;20557;-70
2023/07/14 09:20:38;;;;;;;5.50;2.30;;;22.80;76.90;;;;;;5049002;28;20025;-70
2023/07/14 09:23:16;;;;;;;8.73;2.35;;;22.70;77.30;;;;;;5049011;28;20025;-70
2023/07/14 09:25:55;;;;;;;6.28;2.67;;;22.80;78.60;;;;;;5049018;28;20491;-71
2023/07/14 09:28:43;;;;;;;6.18;2.35;;;22.90;77.70;;;;;;5048511;28;20029;-71
2023/07/14 09:31:37;;;;;;;4.88;2.15;;;23.00;76.00;;;;;;5048491;28;20049;-71
2023/07/14 09:34:12;;;;;;;5.78;2.55;;;23.00;77.80;;;;;;5048648;28;20032;-71
2023/07/14 09:36:39;;;;;;;5.25;2.47;;;23.20;77.10;;;;;;5048100;28;20036;-71
2023/07/14 09:39:11;;;;;;;5.55;2.38;;;23.20;77.20;;;;;;5048268;28;20132;-70
2023/07/14 09:41:37;;;;;;;4.70;1.83;;;23.40;79.30;;;;;;5047329;28;20108;-70
2023/07/14 09:44:02;;;;;;;7.07;2.50;;;23.40;79.10;;;;;;5048711;28;20207;-70
2023/07/14 09:46:45;;;;;;;3.53;1.75;;;23.50;73.50;;;;;;5048549;28;20108;-71
2023/07/14 09:49:27;;;;;;;6.40;2.65;;;23.60;79.50;;;;;;5048248;28;20036;-71
2023/07/14 09:52:12;;;;;;;5.15;2.25;;;23.80;76.40;;;;;;5048431;28;20037;-71
2023/07/14 09:54:49;;;;;;;6.28;2.10;;;23.80;77.00;;;;;;5048254;28;20021;-72
2023/07/14 09:57:17;;;;;;;4.97;2.10;;;24.00;75.10;;;;;;5048360;28;20025;-71
2023/07/14 09:59:53;;;;;;;4.55;1.73;;;24.10;75.60;;;;;;5052670;28;20021;-69
2023/07/14 10:02:24;;;;;;;4.88;2.38;;;24.20;74.40;;;;;;5051880;28;20131;-71
2023/07/14 10:04:54;;;;;;;5.65;2.60;;;24.30;73.80;;;;;;5052579;28;20475;-71
2023/07/14 10:07:35;;;;;;;5.63;2.15;;;24.30;72.70;;;;;;5052055;28;20049;-71
2023/07/14 10:10:09;;;;;;;4.03;1.75;;;24.40;75.90;;;;;;5051896;28;20032;-71
2023/07/14 10:12:43;;;;;;;8.00;2.05;;;24.50;79.10;;;;;;5052131;28;20815;-71
2023/07/14 10:15:24;;;;;;;7.30;3.33;;;24.50;77.40;;;;;;5051427;28;20032;-71
2023/07/14 10:17:54;;;;;;;6.20;2.22;;;24.70;73.90;;;;;;5050826;28;20447;-71
2023/07/14 10:20:21;;;;;;;5.72;2.40;;;24.80;76.50;;;;;;5051781;28;20096;-71
2023/07/14 10:22:54;;;;;;;5.38;2.70;;;24.90;72.40;;;;;;5051915;28;20036;-71
2023/07/14 10:25:21;;;;;;;4.40;2.22;;;24.90;75.70;;;;;;5051680;28;20045;-70
2023/07/14 10:28:03;;;;;;;8.10;3.10;;;25.20;73.90;;;;;;5052722;28;20078;-71
2023/07/14 10:30:53;;;;;;;5.47;2.25;;;25.20;74.10;;;;;;5051684;28;20037;-71
2023/07/14 10:33:33;;;;;;;;;;;25.10;72.20;;;;;;5050219;28;20339;-72
2023/07/14 10:36:08;;;;;;;5.13;2.28;;;25.10;70.30;;;;;;5051733;28;19913;-71
2023/07/14 10:38:42;;;;;;;6.38;2.58;;;25.20;72.90;;;;;;5050339;28;20025;-73
2023/07/14 10:41:10;;;;;;;5.45;2.47;;;25.20;75.80;;;;;;5051868;28;20078;-72
2023/07/14 10:43:45;;;;;;;6.35;2.50;;;25.20;71.70;;;;;;5051445;28;20108;-73
2023/07/14 10:46:21;;;;;;;4.63;2.25;;;25.10;75.70;;;;;;5051577;28;20034;-71
2023/07/14 10:49:16;;;;;;;7.63;2.90;;;25.10;74.80;;;;;;5051099;28;20028;-73
2023/07/14 10:51:48;;;;;;;7.35;2.90;;;25.10;73.70;;;;;;5048341;28;20045;-71
2023/07/14 10:54:13;;;;;;;7.20;2.15;;;25.00;75.40;;;;;;5051468;28;20024;-72
2023/07/14 10:57:03;;;;;;;6.60;2.47;;;24.90;73.90;;;;;;5050843;28;20132;-72
2023/07/14 10:59:44;;;;;;;4.88;2.45;;;24.80;73.60;;;;;;5051239;28;20452;-73
2023/07/14 11:02:09;;;;;;;4.50;1.88;;;24.80;79.00;;;;;;5049701;28;20029;-73
2023/07/14 11:04:43;;;;;;;4.72;2.08;;;24.80;75.60;;;;;;5051251;28;20021;-72
2023/07/14 11:07:17;;;;;;;6.65;2.78;;;24.80;76.20;;;;;;5050612;28;20029;-71
2023/07/14 11:09:43;;;;;;;4.90;2.25;;;24.70;72.70;;;;;;5049442;28;20024;-72
2023/07/14 11:12:41;;;;;;;4.38;2.30;;;24.80;77.40;;;;;;5048686;28;20037;-74
2023/07/14 11:15:14;;;;;;;5.43;2.67;;;24.90;78.80;;;;;;5047587;28;20029;-69
2023/07/14 11:18:01;;;;;;;6.03;2.35;;;24.90;76.70;;;;;;5050864;28;20086;-68
2023/07/14 11:20:30;;;;;;;6.00;2.65;;;24.90;73.60;;;;;;5051383;28;20025;-69
2023/07/14 11:23:37;;;;;;;6.53;2.40;;;24.70;74.30;;;;;;5050428;28;20171;-69
2023/07/14 11:26:36;;;;;;;5.80;2.22;;;24.60;75.30;;;;;;5050551;28;20045;-71
2023/07/14 11:29:18;;;;;;;5.32;2.30;;;24.60;75.50;;;;;;5050832;28;20032;-70
2023/07/14 11:31:49;;;;;;;5.28;2.08;;;24.50;74.30;;;;;;5050754;28;20487;-70
2023/07/14 11:34:39;;;;;;;4.78;2.10;;;24.50;76.00;;;;;;5050634;28;20033;-71
2023/07/14 11:37:43;;;;;;;5.63;2.20;;;24.50;77.80;;;;;;5049032;28;20515;-71
2023/07/14 11:40:20;;;;;;;5.95;2.10;;;24.60;78.20;;;;;;5038993;28;20107;-69
2023/07/14 11:42:52;;;;;;;4.80;2.42;;;24.70;78.00;;;;;;5051048;28;20360;-69
2023/07/14 11:45:22;;;;;;;4.63;2.30;;;24.70;76.10;;;;;;5050578;28;20025;-69
2023/07/14 11:47:49;;;;;;;6.95;2.45;;;24.70;76.10;;;;;;5050836;28;20021;-68
2023/07/14 11:50:18;;;;;;;4.63;2.47;;;24.80;76.50;;;;;;5050164;28;20125;-70
2023/07/14 11:52:58;;;;;;;4.43;2.20;;;24.90;76.00;;;;;;5050586;28;20509;-69
2023/07/14 11:55:27;;;;;;;5.35;2.80;;;24.90;73.30;;;;;;5049064;28;20126;-68
2023/07/14 11:58:16;;;;;;;5.07;2.03;;;25.10;72.90;;;;;;5050122;28;20048;-70
2023/07/14 12:00:47;;;;;;;7.13;2.65;;;25.20;72.00;;;;;;5048653;28;20056;-69
2023/07/14 12:03:40;;;;;;;7.18;3.28;;;25.30;71.70;;;;;;5050390;28;20025;-69
2023/07/14 12:06:18;;;;;;;5.68;2.22;;;25.20;70.80;;;;;;5050356;28;20023;-69
2023/07/14 12:08:58;;;;;;;5.45;2.00;;;25.00;70.90;;;;;;5049796;28;20721;-69
2023/07/14 12:11:28;;;;;;;;;;;24.90;72.50;;;;;;5050576;28;20044;-71
2023/07/14 12:13:53;;;;;;;6.88;2.67;;;24.90;73.70;;;;;;5050039;28;19904;-70
2023/07/14 12:16:25;;;;;;;5.65;2.33;;;24.90;71.60;;;;;;5050759;28;20028;-70
2023/07/14 12:18:57;;;;;;;4.25;1.92;;;25.00;71.60;;;;;;5050540;28;20029;-70
2023/07/14 12:21:32;;;;;;;4.38;1.92;;;25.20;73.20;;;;;;5048926;28;20102;-69
2023/07/14 12:24:03;;;;;;;6.25;2.35;;;25.50;75.50;;;;;;5049725;28;20022;-69
2023/07/14 12:26:40;;;;;;;6.75;2.55;;;25.70;71.80;;;;;;5049768;28;20045;-69
2023/07/14 12:29:14;;;;;;;4.78;2.15;;;25.90;71.90;;;;;;5050737;28;20025;-71
2023/07/14 12:31:41;;;;;;;6.55;2.38;;;26.00;70.80;;;;;;5050216;28;20530;-71
2023/07/14 12:34:14;;;;;;;5.38;2.30;;;26.10;69.70;;;;;;5050125;28;20479;-70
2023/07/14 12:36:42;;;;;;;6.43;2.78;;;26.30;69.60;;;;;;5051352;28;20028;-70
2023/07/14 12:39:09;;;;;;;6.90;1.77;;;26.40;68.00;;;;;;5051918;28;20021;-72
2023/07/14 12:41:39;;;;;;;7.57;2.50;;;26.50;66.50;;;;;;5052757;28;20025;-71
2023/07/14 12:44:16;;;;;;;8.88;2.17;;;26.60;67.10;;;;;;5052978;28;20112;-70
2023/07/14 12:46:41;;;;;;;3.88;1.77;;;26.80;66.80;;;;;;5052119;28;20447;-70
2023/07/14 12:49:33;;;;;;;5.95;1.70;;;27.20;68.20;;;;;;5052292;28;20052;-70
2023/07/14 12:52:16;;;;;;;5.25;2.45;;;27.40;66.00;;;;;;5052514;28;20040;-71
2023/07/14 12:54:45;;;;;;;5.28;2.50;;;27.50;68.60;;;;;;5052420;28;20080;-70
2023/07/14 12:57:13;;;;;;;6.65;2.28;;;27.50;65.00;;;;;;5053022;28;20023;-70
2023/07/14 12:59:38;;;;;;;4.90;2.00;;;27.40;64.30;;;;;;5053579;28;20021;-71
2023/07/14 13:02:12;;;;;;;4.05;2.10;;;27.30;65.20;;;;;;5052627;28;20449;-69
2023/07/14 13:04:38;;;;;;;5.35;2.53;;;27.20;62.70;;;;;;5051327;28;20498;-69
2023/07/14 13:07:10;;;;;;;4.43;2.00;;;27.00;66.30;;;;;;5051566;28;20024;-71
2023/07/14 13:09:36;;;;;;;4.82;1.70;;;27.00;67.40;;;;;;5051839;28;20087;-70
2023/07/14 13:12:02;;;;;;;6.22;1.92;;;27.10;71.30;;;;;;5053891;28;20029;-71
2023/07/14 13:14:35;;;;;;;4.57;1.88;;;27.20;67.40;;;;;;5055390;28;20051;-70
2023/07/14 13:17:03;;;;;;;5.63;2.60;;;27.30;66.40;;;;;;5054082;28;20092;-69
2023/07/14 13:19:31;;;;;;;4.40;1.95;;;27.40;65.60;;;;;;5056691;28;20489;-68
2023/07/14 13:22:00;;;;;;;6.78;2.58;;;27.20;65.90;;;;;;5054000;28;20136;-68
2023/07/14 13:24:28;;;;;;;11.70;2.60;;;27.10;66.30;;;;;;5050871;28;20035;-69
2023/07/14 13:26:59;;;;;;;6.50;2.22;;;27.00;66.20;;;;;;5050681;28;20499;-69
2023/07/14 13:29:28;;;;;;;4.65;2.13;;;26.80;67.80;;;;;;5051190;28;20116;-71
2023/07/14 13:31:58;;;;;;;6.10;2.13;;;26.90;68.20;;;;;;5053132;28;20045;-70
2023/07/14 13:34:28;;;;;;;5.72;2.67;;;27.10;65.70;;;;;;5058075;28;20029;-69